Tiempo atmosférico en la estación meteorológica de Mora, Toledo (717 m.)



Fecha
DESCASC
Temp. máxima en grados centígrados (hora)
DESCASC
Temp. mínima en grados centígrados (hora)
DESCASC
Temp. media en grados centígrados
DESCASC
Racha de viento máxima en m/sg (hora)
DESCASC
Velocidad máxima media en intervalos de 10 minutos(hora)
DESCASC
Precipitaciones diarias en mm
DESCASC
Precipitaciones de 00:00 a 06:00 en mm
DESCASC
Precipitaciones de 06:00 a 12:00 en mm
DESCASC
Precipitaciones de 12:00 a 18:00 en mm
DESCASC
Precipitaciones de 18:00 a 24:00 en mm
DESCASC
21-01-2021 9.9 (19:30) 5.3 (00:50) 7.6 13.89 (19:30) 6.67 (20:20) 0 0 0 0 0
20-01-2021 8.1 (15:10) 0.2 (00:10) 4.2 9.72 (12:40) 5.28 (12:30) 2.4 0 0.8 0.2 1.4
19-01-2021 12.5 (15:10) -1.4 (05:40) 5.6 5.56 (06:40) 3.33 (06:40) 0 0 0 0 0
18-01-2021 13.6 (13:20) -5.4 (07:20) 4.1 3.89 (23:59) 2.22 (23:59) 0 0 0 0 0
17-01-2021 17.1 (16:10) -6 (-00:0) 5.6 3.06 (02:50) 1.67 (07:30) 0 0 0 0 0
16-01-2021 15.3 (15:00) -3.8 (-00:0) 5.8 3.33 (22:10) 2.22 (03:20) 0 0 0 0 0
15-01-2021 12.9 (16:20) -5.5 (-00:0) 3.7 3.06 (03:30) 2.22 (03:30) 0 0 0 0 0
14-01-2021 16.3 (13:00) -7.4 (04:50) 4.4 3.06 (20:50) 2.22 (23:10) 0 0 0 0 0
13-01-2021 11.7 (15:30) -9.3 (-00:0) 1.2 2.78 (09:20) 1.94 (10:30) 0 0 0 0 0
12-01-2021 8.4 (15:10) -11 (-00:0) -1.3 2.78 (10:30) 1.94 (21:00) -- -- -- -- 0
11-01-2021 5.2 (17:10) -9.9 (-00:0) -2.3 2.78 (15:00) 1.39 (13:40) -- -- -- -- --
10-01-2021 4 (12:20) -8.8 (06:30) -2.4 2.5 (14:00) 1.94 (14:30) -- -- -- -- --
09-01-2021 6.4 (15:30) -4.9 (-00:0) 0.8 5.28 (17:50) 2.78 (19:40) 21.4 0 4.4 14.4 2.6
08-01-2021 0.9 (13:00) -2.1 (-00:0) -0.6 5 (16:10) 2.22 (13:20) 5.4 0 0 4.2 1.2
07-01-2021 2 (00:30) -1.6 (-00:0) 0.2 10.28 (01:30) 4.72 (01:30) 4.6 0.4 0.4 3.4 0.4
06-01-2021 6.1 (11:00) -6.6 (-00:0) -0.3 6.11 (21:50) 3.06 (15:50) 0 0 0 0 0
05-01-2021 6.8 (17:00) -4.6 (-00:0) 1.1 3.89 (18:00) 1.94 (14:00) 0 0 0 0 0
04-01-2021 5.6 (15:00) -0.2 (00:00) 2.7 8.33 (15:20) 5 (15:30) 0 0 0 0 0
03-01-2021 7.4 (15:20) -2.9 (-00:0) 2.3 7.78 (14:30) 5 (14:30) 0 0 0 0 0
02-01-2021 5 (15:40) -1.7 (-00:0) 1.6 11.94 (12:20) 7.22 (14:40) 0.2 0 0.2 0 0
01-01-2021 6.8 (16:30) 0.6 (00:00) 3.7 10.83 (15:30) 6.11 (16:20) 2 1.6 0.2 0.2 0
31-12-2020 9.1 (14:30) -3.3 (-00:0) 2.9 10.28 (23:00) 5 (23:00) 1.6 0 0 0 1.6
30-12-2020 8.5 (16:50) -1.7 (-00:0) 3.4 5.28 (13:20) 3.33 (13:10) 0 0 0 0 0
29-12-2020 7.8 (14:00) 0.2 (00:00) 4 11.39 (13:40) 7.22 (14:10) 0 0 0 0 0
28-12-2020 9 (15:00) 2.6 (00:00) 5.8 15.83 (07:50) 9.72 (07:50) 0.6 0 0.6 0 0
27-12-2020 11.1 (14:40) -3 (-00:0) 4.1 11.67 (22:10) 5.83 (22:10) 0 0 0 0 0
26-12-2020 7.9 (16:50) -3.6 (-00:0) 2.2 6.67 (15:40) 3.61 (15:40) 0.6 0 0.2 0.4 0

Gráficas

Temp. máximas Temp. mínimas Temp. medias Precipitaciones Rachas de viento máximas Velocidades máximas media en intervalos de 10 minutos

Datos horarios

Fecha y hora oficial Temperatura (ºC) Velocidad del viento (km/h) Dirección del viento Racha (km/h) Dirección de racha Precipitación (mm) Presión (hPa) Tendencia (hPa) Humedad (%)
2021-01-24 23:00:00 8.2 3 Sur 9 Sur 0 -- -- 77
2021-01-24 22:00:00 7.9 4 Sudeste 6 Sudeste 0 -- -- 84
2021-01-24 21:00:00 7.9 3 Sur 10 Sudoeste 0 -- -- 83
2021-01-24 20:00:00 8.2 3 Sudoeste 9 Oeste 0 -- -- 81
2021-01-24 19:00:00 8.4 6 Oeste 14 Oeste 0 -- -- 81
2021-01-24 18:00:00 9.5 7 Noroeste 22 Oeste 0 -- -- 78
2021-01-24 17:00:00 10.3 13 Noroeste 31 Noroeste 0 -- -- 70
2021-01-24 16:00:00 10.6 18 Oeste 35 Oeste 0 -- -- 62
2021-01-24 15:00:00 11.3 23 Oeste 42 Oeste 0 -- -- 56
2021-01-24 14:00:00 12.2 18 Oeste 35 Oeste 0 -- -- 57
2021-01-24 13:00:00 11.6 19 Oeste 36 Oeste 0 -- -- 56
2021-01-24 12:00:00 10.7 22 Oeste 41 Oeste 0 -- -- 61
2021-01-24 11:00:00 9.6 22 Oeste 34 Oeste 0 -- -- 70
2021-01-24 10:00:00 8.3 17 Oeste 33 Oeste 0 -- -- 80
2021-01-24 09:00:00 7.1 16 Oeste 29 Oeste 0 -- -- 85
2021-01-24 08:00:00 7.5 11 Oeste 46 Oeste 0 -- -- 82
2021-01-24 07:00:00 7.8 24 Oeste 40 Oeste 0 -- -- 81
2021-01-24 06:00:00 8.2 23 Oeste 40 Oeste 0 -- -- 79
2021-01-24 05:00:00 8.8 21 Oeste 33 Sudoeste 0 -- -- 74
2021-01-24 04:00:00 10.1 11 Oeste 22 Oeste 0 -- -- 80
2021-01-24 03:00:00 10.6 8 Oeste 27 Sudoeste 0 -- -- 87
2021-01-24 02:00:00 10.8 13 Oeste 30 Sudoeste 0 -- -- 91
2021-01-24 01:00:00 11.8 18 Sudoeste 41 Sudoeste 0 -- -- 83
2021-01-24 00:00:00 11.7 19 Sudoeste 43 Sudoeste 0 -- -- 82
2021-01-23 23:00:00 11.7 18 Sudoeste 40 Sudoeste 0 -- -- 85
2021-01-23 22:00:00 11.2 23 Sudoeste 47 Sudoeste 0 -- -- 85
2021-01-23 21:00:00 10.2 16 Sudoeste 37 Sudoeste 0 -- -- 87
2021-01-23 20:00:00 9.4 15 Sudoeste 40 Sudoeste 0 -- -- 87
2021-01-23 19:00:00 9.3 23 Sudoeste 48 Sur 0 -- -- 84
2021-01-23 18:00:00 9 20 Sudoeste 35 Sur 0 -- -- 84
2021-01-23 17:00:00 8.8 18 Sudoeste 43 Sudoeste 0 -- -- 84
2021-01-23 16:00:00 8.8 21 Sudoeste 44 Sudoeste 0.2 -- -- 84
2021-01-23 15:00:00 8.3 16 Sudoeste 34 Sudoeste 0 -- -- 86
2021-01-23 14:00:00 7.3 14 Sudoeste 33 Sudoeste 0 -- -- 88
2021-01-23 13:00:00 7.5 11 Sudoeste 35 Sudoeste 0 -- -- 80
2021-01-23 12:00:00 7 14 Sudoeste 31 Sudoeste 0 -- -- 82
2021-01-23 11:00:00 6.8 13 Sudoeste 28 Sudoeste 0 -- -- 81
2021-01-23 10:00:00 5.5 13 Sudoeste 23 Sudoeste 0 -- -- 83
2021-01-23 09:00:00 4.9 8 Sur 19 Sudoeste 0 -- -- 81
2021-01-23 08:00:00 4.4 6 Sur 20 Sudeste 0 -- -- 86
2021-01-23 07:00:00 4.1 7 Sudoeste 21 Sudoeste 0 -- -- 84
2021-01-23 06:00:00 4.1 9 Sudoeste 24 Oeste 0 -- -- 84
2021-01-23 05:00:00 4 8 Sudoeste 17 Oeste 0 -- -- 84
2021-01-23 04:00:00 4 8 Sudoeste 14 Sudoeste 0 -- -- 85
2021-01-23 03:00:00 3.5 4 Sur 21 Sudoeste 0 -- -- 86
2021-01-23 02:00:00 3.8 12 Sudoeste 22 Sudoeste 0 -- -- 88
2021-01-23 01:00:00 3.6 8 Sudoeste 20 Sudoeste 0 -- -- 88
2021-01-23 00:00:00 4.2 9 Sudoeste 19 Sudoeste 0 -- -- 83
2021-01-22 23:00:00 4.3 4 Sur 14 Oeste 0 -- -- 81
2021-01-22 22:00:00 5.4 8 Sudoeste 25 Oeste 0 -- -- 80
2021-01-22 21:00:00 5.8 19 Oeste 37 Oeste 0 -- -- 80
2021-01-22 20:00:00 5.6 13 Oeste 32 Oeste 0.2 -- -- 83
2021-01-22 19:00:00 6.4 18 Oeste 37 Oeste 0.2 -- -- 80
2021-01-22 18:00:00 7 24 Oeste 49 Oeste 0.2 -- -- 80
2021-01-22 17:00:00 7.9 29 Oeste 46 Oeste 0.2 -- -- 78
2021-01-22 16:00:00 7.1 18 Oeste 45 Noroeste 0.8 -- -- 90
2021-01-22 15:00:00 6.1 27 Noroeste 53 Oeste 1.4 -- -- 90
2021-01-22 14:00:00 8.3 33 Oeste 61 Oeste 0 -- -- 79
2021-01-22 13:00:00 9.6 31 Oeste 57 Oeste 0 -- -- 68
2021-01-22 12:00:00 8.9 28 Oeste 52 Oeste 0 -- -- 71
2021-01-22 11:00:00 8.6 33 Oeste 57 Oeste 0 -- -- 68
2021-01-22 10:00:00 8.2 21 Oeste 53 Oeste 0 -- -- 72
2021-01-22 09:00:00 8.2 36 Oeste 59 Oeste 0 -- -- 69
2021-01-22 08:00:00 8.6 26 Oeste 76 Oeste 0.2 -- -- 76
2021-01-22 07:00:00 9.9 39 Sudoeste 67 Sudoeste 0 -- -- 76
2021-01-22 06:00:00 10.9 27 Sudoeste 56 Oeste 0 -- -- 84
2021-01-22 05:00:00 11.4 24 Sudoeste 54 Sudoeste 0.4 -- -- 84
2021-01-22 04:00:00 10.4 15 Sudoeste 63 Sudoeste 1.2 -- -- 93
2021-01-22 03:00:00 10.4 20 Sudoeste 47 Sudoeste 0 -- -- 91
2021-01-22 02:00:00 10 21 Sudoeste 46 Sudoeste 0 -- -- 90
2021-01-22 01:00:00 9.6 11 Sur 36 Sur 0 -- -- 92
2021-01-22 00:00:00 9.3 12 Sur 36 Sudoeste 0 -- -- 94
2021-01-21 23:00:00 9.6 16 Sudoeste 42 Sudoeste 0 -- -- 90
2021-01-21 22:00:00 9.1 16 Sudoeste 31 Sudoeste 0 -- -- 90
2021-01-21 21:00:00 9.1 13 Sudoeste 44 Sudoeste 0 -- -- 88
2021-01-21 20:00:00 9.7 20 Sudoeste 50 Oeste 0 -- -- 85
2021-01-21 19:00:00 9.3 12 Sudoeste 21 Sudoeste 0 -- -- 89
2021-01-21 18:00:00 9.6 14 Sudoeste 45 Sudoeste 0 -- -- 86
2021-01-21 17:00:00 8.9 14 Sudoeste 28 Sudoeste 0 -- -- 92
2021-01-21 16:00:00 8.6 12 Sur 24 Sudoeste 0 -- -- 92
2021-01-21 15:00:00 9.1 15 Sudoeste 33 Sudoeste 0 -- -- 85
2021-01-21 14:00:00 9.1 14 Sudoeste 33 Sudoeste 0 -- -- 83
2021-01-21 13:00:00 9.8 8 Sudeste 22 Sur 0 -- -- 79
2021-01-21 12:00:00 8.4 11 Sudoeste 26 Sudoeste 0 -- -- 83
2021-01-21 11:00:00 8.5 13 Sudoeste 26 Sudoeste 0 -- -- 83
2021-01-21 10:00:00 7.3 12 Sudoeste 28 Sudoeste 0 -- -- 90
2021-01-21 09:00:00 5.9 6 Sur 19 Sudoeste 0 -- -- 93
2021-01-21 08:00:00 5.6 7 Sudoeste 16 Sudoeste 0 -- -- 92
2021-01-21 07:00:00 6 7 Sudoeste 18 Sudoeste 0 -- -- 95
2021-01-21 06:00:00 5.6 9 Sudoeste 19 Sudoeste 0 -- -- 95
2021-01-21 05:00:00 6 9 Sudoeste 19 Sudoeste 0 -- -- 95
2021-01-21 04:00:00 5.6 10 Sudoeste 18 Sur 0 -- -- 92
2021-01-21 03:00:00 6.2 11 Sudoeste 25 Sudoeste 0 -- -- 92
2021-01-21 02:00:00 5.4 10 Sudoeste 16 Sur 0 -- -- 94
2021-01-21 01:00:00 5.7 8 Sur 16 Sudoeste 0 -- -- 93
2021-01-21 00:00:00 5.7 9 Sur 19 Sur 0 -- -- 94
2021-01-20 23:00:00 5.6 7 Sur 16 Sur 0 -- -- 95
2021-01-20 22:00:00 5.1 5 Sudoeste 17 Sudoeste 0.6 -- -- 93
2021-01-20 21:00:00 6.2 9 Sudoeste 26 Sur 0.8 -- -- 91
2021-01-20 20:00:00 6.3 7 Sur 17 Sur 0 -- -- 91
2021-01-20 19:00:00 6.3 9 Sur 17 Sur 0 -- -- 92
2021-01-20 18:00:00 6.4 8 Sur 27 Sur 0 -- -- 90
2021-01-20 17:00:00 7.5 11 Sur 23 Sur 0 -- -- 85
2021-01-20 16:00:00 6.9 9 Sur 19 Sur 0 -- -- 89
2021-01-20 15:00:00 7.8 6 Sudeste 21 Sudoeste 0 -- -- 83
2021-01-20 14:00:00 7.6 10 Sudoeste 27 Sudoeste 0 -- -- 82
2021-01-20 13:00:00 7.1 15 Sur 35 Sur 0.2 -- -- 85
2021-01-20 12:00:00 5.6 9 Sur 23 Sudeste 0 -- -- 91
2021-01-20 11:00:00 4.9 10 Sur 19 Sudeste 0.2 -- -- 94
2021-01-20 10:00:00 4.4 7 Sur 14 Sudeste 0.6 -- -- 92
2021-01-20 09:00:00 4.8 3 Sur 14 Este 0 -- -- 88
2021-01-20 08:00:00 4.6 5 Sudeste 13 Sudeste 0 -- -- 86
2021-01-20 07:00:00 5.7 5 Sudeste 31 Sur 0 -- -- 82
2021-01-20 06:00:00 5.1 8 Sur 14 Sur 0 -- -- 85
2021-01-20 05:00:00 4.7 6 Sur 13 Sur 0 -- -- 85
2021-01-20 04:00:00 4.1 4 Este 9 Sudeste 0 -- -- 86
2021-01-20 03:00:00 3.6 3 Sur 12 Sudeste 0 -- -- 87
2021-01-20 02:00:00 3.5 6 Sur 10 Sudoeste 0 -- -- 87
2021-01-20 01:00:00 1.1 0 Calma 9 Sur 0 -- -- 88
2021-01-20 00:00:00 0.3 3 Sudoeste 10 Sur 0 -- -- 87
2021-01-19 23:00:00 3 5 Sur 13 Sur 0 -- -- 79
2021-01-19 22:00:00 2.2 4 Sur 11 Sur 0 -- -- 82
2021-01-19 21:00:00 4 4 Sur 8 Sur 0 -- -- 75
2021-01-19 20:00:00 3.3 5 Sudeste 9 Sudeste 0 -- -- 77
2021-01-19 19:00:00 5 4 Sur 6 Sudeste 0 -- -- 73
2021-01-19 18:00:00 5.9 3 Sur 4 Sudoeste 0 -- -- 70
2021-01-19 17:00:00 6.6 0 Calma 7 Norte 0 -- -- 67
2021-01-19 16:00:00 9.8 0 Calma 7 Sur 0 -- -- 58
2021-01-19 15:00:00 11.9 3 Sur 10 Sur 0 -- -- 51
2021-01-19 14:00:00 10.2 5 Sur 13 Sur 0 -- -- 55
2021-01-19 13:00:00 9 8 Sur 15 Sur 0 -- -- 60
2021-01-19 12:00:00 7.8 8 Sur 17 Sur 0 -- -- 63
2021-01-19 11:00:00 6.3 8 Sur 15 Sur 0 -- -- 70
2021-01-19 10:00:00 2.7 8 Sur 16 Sudeste 0 -- -- 83
2021-01-19 09:00:00 1.1 10 Sur 17 Sudeste 0 -- -- 89
2021-01-19 08:00:00 0.3 6 Sur 15 Sur 0 -- -- 92
2021-01-19 07:00:00 1.2 8 Sur 20 Sur 0 -- -- 88
2021-01-19 06:00:00 0 7 Sur 14 Sur 0 -- -- 93
2021-01-19 05:00:00 -0.4 0 Calma 14 Sur 0 -- -- 88
2021-01-19 04:00:00 1 7 Sur 15 Sudeste 0 -- -- 88
2021-01-19 03:00:00 1.7 9 Sur 16 Sur 0 -- -- 86
2021-01-19 02:00:00 1.5 9 Sur 15 Sur 0 -- -- 89
2021-01-19 01:00:00 1.1 7 Sur 14 Sur 0 -- -- 87
2021-01-19 00:00:00 0.6 8 Sur 14 Sudeste 0 -- -- 85
2021-01-18 23:00:00 1.8 6 Sur 12 Sur 0 -- -- 85
2021-01-18 22:00:00 2.7 8 Sur 13 Sur 0 -- -- 82
2021-01-18 21:00:00 2.5 5 Sur 13 Sur 0 -- -- 82
2021-01-18 20:00:00 1.5 2 Sur 5 Sudeste 0 -- -- 83
2021-01-18 19:00:00 3.3 2 Sudeste 6 Sur 0 -- -- 77
2021-01-18 18:00:00 7.4 0 Calma 3 Sur 0 -- -- 60
2021-01-18 17:00:00 10.9 0 Calma 3 Noroeste 0 -- -- 51
2021-01-18 16:00:00 10.6 0 Calma 8 Nordeste 0 -- -- 53
2021-01-18 15:00:00 9.9 3 Nordeste 7 Norte 0 -- -- 49
2021-01-18 14:00:00 10.8 3 Sudeste 5 Sur 0 -- -- 44
2021-01-18 13:00:00 10 0 Calma 6 Nordeste 0 -- -- 46
2021-01-18 12:00:00 10.6 2 Sur 6 Sudeste 0 -- -- 38
2021-01-18 11:00:00 4.2 3 Sudeste 6 Sur 0 -- -- 55
2021-01-18 10:00:00 -1.2 3 Sur 6 Sur 0 -- -- 73
2021-01-18 09:00:00 -5.3 0 Calma 7 Sur 0 -- -- 80
2021-01-18 08:00:00 -4.1 3 Sur 8 Sur 0 -- -- 77
2021-01-18 07:00:00 -5 2 Sur 8 Sur 0 -- -- 79
2021-01-18 06:00:00 -5.2 2 Sur 7 Sur 0 -- -- 77
2021-01-18 05:00:00 -5.1 0 Calma 7 Sur 0 -- -- 79
2021-01-18 04:00:00 -3.9 0 Calma 6 Sur 0 -- -- 76
2021-01-18 03:00:00 -4.2 3 Sur 6 Sur 0 -- -- 75
2021-01-18 02:00:00 -3.6 3 Sur 9 Sur 0 -- -- 73
2021-01-18 01:00:00 -2.5 5 Sur 10 Sur 0 -- -- 71
2021-01-18 00:00:00 -2.6 3 Sur 8 Sudeste 0 -- -- 72
2021-01-17 23:00:00 -2.3 4 Sur 9 Sur 0 -- -- 72
2021-01-17 22:00:00 -2.6 0 Calma 7 Sur 0 -- -- 75
2021-01-17 21:00:00 -1 3 Sur 6 Sur 0 -- -- 73
2021-01-17 20:00:00 0.3 3 Sur 6 Sur 0 -- -- 68
2021-01-17 19:00:00 1.7 3 Sudeste 4 Sudeste 0 -- -- 68
2021-01-17 18:00:00 8.1 0 Calma 5 Sur 0 -- -- 44
2021-01-17 17:00:00 11.2 3 Sur 5 Sur 0 -- -- 35
2021-01-17 16:00:00 14.7 0 Calma 3 Sudoeste 0 -- -- 38
2021-01-17 15:00:00 9.7 0 Calma 6 Norte 0 -- -- 47
2021-01-17 14:00:00 12.2 0 Calma 9 Sur 0 -- -- 34
2021-01-17 13:00:00 7.8 4 Sur 9 Sur 0 -- -- 43
2021-01-17 12:00:00 15.4 0 Calma 4 Sur 0 -- -- 25
2021-01-17 11:00:00 6.6 2 Sur 6 Sur 0 -- -- 39
2021-01-17 10:00:00 -1.6 2 Sur 5 Sur 0 -- -- 63
2021-01-17 09:00:00 -6 0 Calma 9 Sur 0 -- -- 73
2021-01-17 08:00:00 -4.6 2 Sur 9 Sur 0 -- -- 68
2021-01-17 07:00:00 -4.9 0 Calma 5 Sur 0 -- -- 74
2021-01-17 06:00:00 -5.1 0 Calma 9 Sur 0 -- -- 73
2021-01-17 05:00:00 -3.6 5 Sur 9 Sur 0 -- -- 71
2021-01-17 04:00:00 -4.2 4 Sur 9 Sur 0 -- -- 74
2021-01-17 03:00:00 -3.6 5 Sur 11 Sur 0 -- -- 70
2021-01-17 02:00:00 -3.6 4 Sur 8 Sur 0 -- -- 76
2021-01-17 01:00:00 -3.1 0 Calma 8 Sur 0 -- -- 71
2021-01-17 00:00:00 -2.1 2 Sur 8 Sur 0 -- -- 71
2021-01-16 23:00:00 -1.6 3 Sur 12 Sur 0 -- -- 71
2021-01-16 22:00:00 -1.3 4 Sur 9 Sur 0 -- -- 72
2021-01-16 21:00:00 0.6 5 Sur 10 Sur 0 -- -- 68
2021-01-16 20:00:00 2.2 6 Sudeste 9 Sudeste 0 -- -- 63
2021-01-16 19:00:00 3.2 5 Sur 8 Sur 0 -- -- 61
2021-01-16 18:00:00 6.4 2 Sur 6 Sudeste 0 -- -- 51
2021-01-16 17:00:00 10.9 2 Sur 6 Sur 0 -- -- 39
2021-01-16 16:00:00 10.6 5 Sudeste 7 Sudeste 0 -- -- 40
2021-01-16 15:00:00 15.3 0 Calma 4 Oeste 0 -- -- 30
2021-01-16 14:00:00 12.5 0 Calma 5 Sudoeste 0 -- -- 36
2021-01-16 13:00:00 10.7 2 Sudeste 8 Sur 0 -- -- 40
2021-01-16 12:00:00 11.3 0 Calma 5 Sudeste 0 -- -- 37
2021-01-16 11:00:00 8.2 0 Calma 6 Sur 0 -- -- 43
2021-01-16 10:00:00 -0.1 0 Calma 6 Sudeste 0 -- -- 72
2021-01-16 09:00:00 -2.3 4 Sur 9 Sudeste 0 -- -- 77
2021-01-16 08:00:00 -3.7 4 Sudeste 8 Sudeste 0 -- -- 82
2021-01-16 07:00:00 -3.5 3 Sur 8 Sudeste 0 -- -- 81
2021-01-16 06:00:00 -3.2 3 Sur 8 Sudeste 0 -- -- 82
2021-01-16 05:00:00 -2.4 5 Sudeste 10 Sur 0 -- -- 80
2021-01-16 04:00:00 -2.1 6 Sudeste 10 Sudeste 0 -- -- 81
2021-01-16 03:00:00 -2.4 7 Sudeste 9 Sudeste 0 -- -- 82
2021-01-16 02:00:00 -2.6 5 Sur 7 Sur 0 -- -- 84
2021-01-16 01:00:00 -1.7 0 Calma 5 Sur 0 -- -- 81
2021-01-16 00:00:00 -2.3 4 Sur 9 Sudeste 0 -- -- 82
2021-01-15 23:00:00 -1.7 5 Sudeste 8 Sudeste 0 -- -- 82
2021-01-15 22:00:00 -1.4 6 Sudeste 8 Sudeste 0 -- -- 85
2021-01-15 21:00:00 -1.7 4 Sudeste 11 Sur 0 -- -- 84
2021-01-15 20:00:00 -0.1 3 Sur 6 Sudeste 0 -- -- 86
2021-01-15 19:00:00 1.1 4 Sudeste 7 Sudeste 0 -- -- 83
2021-01-15 18:00:00 3.8 3 Sur 4 Sur 0 -- -- 73
2021-01-15 17:00:00 11 0 Calma 3 Sudoeste 0 -- -- 51
2021-01-15 16:00:00 9.1 0 Calma 4 Sudoeste 0 -- -- 58
2021-01-15 15:00:00 6.8 0 Calma 11 Sur 0 -- -- 68
2021-01-15 14:00:00 6.3 6 Sudoeste 9 Sudoeste 0 -- -- 66
2021-01-15 13:00:00 11.8 0 Calma 4 Oeste 0 -- -- 51
2021-01-15 12:00:00 9.3 0 Calma 7 Sudeste 0 -- -- 57
2021-01-15 11:00:00 2.5 6 Sur 9 Sur 0 -- -- 72
2021-01-15 10:00:00 -2.7 2 Sudeste 3 Sudeste 0 -- -- 93
2021-01-15 09:00:00 -4.9 0 Calma 8 Sur 0 -- -- 93
2021-01-15 08:00:00 -5.2 0 Calma 10 Sudeste 0 -- -- 91
2021-01-15 07:00:00 -3.8 7 Sur 10 Sur 0 -- -- 89
2021-01-15 06:00:00 -2 3 Sudeste 8 Sudeste 0 -- -- 86
2021-01-15 05:00:00 -3.6 4 Sur 10 Sur 0 -- -- 86
2021-01-15 04:00:00 -3.6 6 Sur 11 Sudeste 0 -- -- 77
2021-01-15 03:00:00 -2.4 3 Sudeste 8 Sudeste 0 -- -- 74
2021-01-15 02:00:00 -2.9 7 Sudeste 9 Sudeste 0 -- -- 74
2021-01-15 01:00:00 -2.2 7 Sudeste 8 Sudeste 0 -- -- 72
2021-01-15 00:00:00 -2.3 5 Sur 9 Sur 0 -- -- 72
2021-01-14 23:00:00 -1.8 7 Sur 10 Sudeste 0 -- -- 72
2021-01-14 22:00:00 -0.9 3 Sudeste 10 Sudeste 0 -- -- 73
2021-01-14 21:00:00 -1.7 7 Sur 11 Sur 0 -- -- 76
2021-01-14 20:00:00 -2 0 Calma 2 Sudoeste 0 -- -- 90
2021-01-14 19:00:00 -1.5 0 Calma 2 Sudeste 0 -- -- 82
2021-01-14 18:00:00 3.7 0 Calma 3 Noroeste 0 -- -- 61
2021-01-14 17:00:00 10.5 0 Calma 6 Norte 0 -- -- 42
2021-01-14 16:00:00 11.3 0 Calma 7 Noroeste 0 -- -- 41
2021-01-14 15:00:00 9.7 0 Calma 5 Norte 0 -- -- 43
2021-01-14 14:00:00 8.4 4 Norte 5 Norte 0 -- -- 43
2021-01-14 13:00:00 16.3 0 Calma 2 Sur 0 -- -- 27
2021-01-14 12:00:00 7.3 2 Sudeste 7 Sur 0 -- -- 48
2021-01-14 11:00:00 3.6 3 Sur 6 Sudeste 0 -- -- 53
2021-01-14 10:00:00 -2.8 2 Sudeste 6 Sudeste 0 -- -- 74
2021-01-14 09:00:00 -4.2 3 Sudeste 6 Sudeste 0 -- -- 77
2021-01-14 08:00:00 -4.6 4 Sur 8 Sur 0 -- -- 77
2021-01-14 07:00:00 -4.7 4 Sur 8 Sudeste 0 -- -- 80
2021-01-14 06:00:00 -5.2 4 Sudeste 5 Sudeste 0 -- -- 84
2021-01-14 05:00:00 -6.3 2 Sudeste 3 Sudeste 0 -- -- 88
2021-01-14 04:00:00 -6.5 0 Calma 6 Sur 0 -- -- 81
2021-01-14 03:00:00 -5.4 2 Sur 9 Sur 0 -- -- 76
2021-01-14 02:00:00 -4.2 3 Sur 8 Sur 0 -- -- 71
2021-01-14 01:00:00 -4 4 Sur 10 Sur 0 -- -- 69
2021-01-14 00:00:00 -3.6 3 Sur 7 Sudeste 0 -- -- 76
2021-01-13 23:00:00 -4.6 0 Calma 5 Sur 0 -- -- 82
2021-01-13 22:00:00 -4.6 0 Calma 4 Sudeste 0 -- -- 83
2021-01-13 21:00:00 -2.9 0 Calma 8 Sur 0 -- -- 80
2021-01-13 20:00:00 -1.3 2 Sur 7 Sur 0 -- -- 75
2021-01-13 19:00:00 -1.6 0 Calma 5 Sur 0 -- -- 84
2021-01-13 18:00:00 3.6 0 Calma 0 Calma 0 -- -- 61
2021-01-13 17:00:00 9 0 Calma 4 Nordeste 0 -- -- 48
2021-01-13 16:00:00 9.1 3 Noroeste 4 Noroeste 0 -- -- 41
2021-01-13 15:00:00 8.2 3 Sur 6 Sur 0 -- -- 46
2021-01-13 14:00:00 7.6 0 Calma 3 Norte 0 -- -- 45
2021-01-13 13:00:00 5.8 0 Calma 8 Nordeste 0 -- -- 48
2021-01-13 12:00:00 4.2 0 Calma 9 Sur 0 -- -- 49
2021-01-13 11:00:00 0.3 4 Sur 10 Sur 0 -- -- 53
2021-01-13 10:00:00 -5.6 4 Sur 10 Sur 0 -- -- 75
2021-01-13 09:00:00 -8.9 0 Calma 4 Sudeste 0 -- -- 79
2021-01-13 08:00:00 -9.2 0 Calma 6 Sur 0 -- -- 78
2021-01-13 07:00:00 -8.2 3 Sur 6 Sudeste 0 -- -- 76
2021-01-13 06:00:00 -7.5 2 Sudeste 8 Sudeste 0 -- -- 74
2021-01-13 05:00:00 -6.6 2 Sudeste 8 Sudeste 0 -- -- 71
2021-01-13 04:00:00 -5.6 3 Sur 9 Sudeste 0 -- -- 68
2021-01-13 03:00:00 -4.2 6 Sur 8 Sur 0 -- -- 64
2021-01-13 02:00:00 -5 2 Sudeste 4 Sudeste 0 -- -- 74
2021-01-13 01:00:00 -4.1 4 Sur 8 Sudeste 0 -- -- 69
2021-01-13 00:00:00 -3.9 3 Sudeste 8 Sudoeste 0 -- -- 68
2021-01-12 23:00:00 -4.2 4 Sur 10 Sur 0 -- -- 66
2021-01-12 22:00:00 -3.8 2 Sur 6 Sudeste 0 -- -- 74
2021-01-12 21:00:00 -4.4 7 Sur 10 Sur 0 -- -- 83
2021-01-12 20:00:00 -2.5 0 Calma 5 Sur 0 -- -- 83
2021-01-12 19:00:00 -1.5 2 Sudeste 5 Sur 0 -- -- 76
2021-01-12 18:00:00 1.5 0 Calma 3 Sudeste 0 -- -- 65
2021-01-12 17:00:00 5.3 2 Sur 6 Sudoeste 0 -- -- 55
2021-01-12 16:00:00 5.1 3 Oeste 6 Oeste 0 -- -- 53
2021-01-12 15:00:00 7.3 0 Calma 4 Sur 0 -- -- 44
2021-01-12 14:00:00 3.9 3 Sur 6 Sur 0 -- -- 49
2021-01-12 13:00:00 5 4 Sur 6 Sur -- -- -- 47
2021-01-12 12:00:00 1.4 2 Sur 8 Sur -- -- -- 57
2021-01-12 11:00:00 -3.1 4 Sur 10 Sur -- -- -- 65
2021-01-12 10:00:00 -8.4 5 Sur 9 Sur -- -- -- 87
2021-01-12 09:00:00 -10.9 3 Sur 9 Sur -- -- -- 89
2021-01-12 08:00:00 -10.1 0 Calma 5 Sur -- -- -- 92
2021-01-12 07:00:00 -9 0 Calma 9 Sudeste -- -- -- 90
2021-01-12 06:00:00 -8.4 6 Sur 9 Sur -- -- -- 90
2021-01-12 05:00:00 -8.4 5 Sudeste 8 Sudeste -- -- -- 88
2021-01-12 04:00:00 -7.6 3 Sudeste 5 Sur -- -- -- 88
2021-01-12 03:00:00 -7.2 4 Sur 6 Sudeste -- -- -- 87
2021-01-12 02:00:00 -6.9 4 Sur 9 Sur -- -- -- 88
2021-01-12 01:00:00 -6.9 3 Sur 6 Sur -- -- -- 88
2021-01-12 00:00:00 -5.9 4 Sur 8 Sur -- -- -- 86
2021-01-11 23:00:00 -5.3 4 Sur 8 Sudeste -- -- -- 85
2021-01-11 22:00:00 -5.4 4 Sur 10 Sudeste -- -- -- 85
2021-01-11 21:00:00 -5.2 5 Sur 10 Sur -- -- -- 84
2021-01-11 20:00:00 -4.7 4 Sur 8 Sudeste -- -- -- 83
2021-01-11 19:00:00 -3.1 0 Calma 5 Sudeste -- -- -- 80
2021-01-11 18:00:00 -0.4 0 Calma -- -- -- -- -- 65
2021-01-11 17:00:00 4 0 Calma 8 Noroeste -- -- -- 55
2021-01-11 16:00:00 1.4 4 Noroeste 9 Oeste -- -- -- 59
2021-01-11 15:00:00 0.6 5 Noroeste 10 Noroeste -- -- -- 63
2021-01-11 14:00:00 0.7 4 Noroeste 8 Noroeste -- -- -- 62
2021-01-11 13:00:00 0.7 4 Noroeste 7 Noroeste 1.4 -- -- 60
2021-01-11 12:00:00 3.7 0 Calma 3 Noroeste 0.8 -- -- 53
2021-01-11 11:00:00 -1 0 Calma 3 Sudoeste 0 -- -- 76
2021-01-11 10:00:00 -5.9 0 Calma 4 Sudeste 0 -- -- 95
2021-01-11 09:00:00 -7.3 0 Calma 4 Sudeste 0 -- -- 96
2021-01-11 08:00:00 -7.7 0 Calma 4 Noroeste 0 -- -- 97
2021-01-11 07:00:00 -8.9 0 Calma 3 Sudeste 0 -- -- 96
2021-01-11 06:00:00 -7 0 Calma 3 Sudeste 0 -- -- 97
2021-01-11 05:00:00 -6.8 0 Calma 3 Sudoeste 0 -- -- 98
2021-01-11 04:00:00 -6 0 Calma 5 Sudeste 0 -- -- 97
2021-01-11 03:00:00 -6.7 0 Calma 6 Sudeste 0 -- -- 96
2021-01-11 02:00:00 -6.2 0 Calma 7 Sudeste 0 -- -- 96
2021-01-11 01:00:00 -4.7 3 Sudeste 5 Sudeste 0 -- -- 96
2021-01-11 00:00:00 -3.6 2 Sur 3 Sudeste 0 -- -- 96
2021-01-10 23:00:00 -4.3 0 Calma 2 Sudeste 0 -- -- 97
2021-01-10 22:00:00 -3.8 0 Calma 3 Sur 0 -- -- 98
2021-01-10 21:00:00 -3.4 0 Calma 4 Sudoeste 0 -- -- 94
2021-01-10 20:00:00 -2.3 0 Calma 8 Oeste 0 -- -- 95
2021-01-10 19:00:00 -2.7 5 Sudoeste 8 Sudoeste 0.2 -- -- 94
2021-01-10 18:00:00 -1.5 2 Noroeste 6 Norte 1 -- -- 90
2021-01-10 17:00:00 2.4 2 Norte 5 Noroeste 1.2 -- -- 77
2021-01-10 16:00:00 1.6 3 Noroeste 8 Noroeste 1.6 -- -- 80
2021-01-10 15:00:00 1.1 5 Noroeste 9 Noroeste 1.6 -- -- 86
2021-01-10 14:00:00 1.3 5 Norte 9 Noroeste 2.2 -- -- 91
2021-01-10 13:00:00 1.7 2 Noroeste 5 Noroeste 2.2 -- -- 90
2021-01-10 12:00:00 1.8 0 Calma 4 Sudeste 0.4 -- -- 91
2021-01-10 11:00:00 -2.8 2 Sudoeste 4 Sur 0 -- -- 97
2021-01-10 10:00:00 -3.7 0 Calma 3 Sur 0 -- -- 98
2021-01-10 09:00:00 -5.1 0 Calma 6 Sur 0 -- -- 98
2021-01-10 08:00:00 -5.7 3 Sur 5 Sur 0 -- -- 98
2021-01-10 07:00:00 -8.1 0 Calma 2 Sur 0 -- -- 98
2021-01-10 06:00:00 -7.8 0 Calma 4 Sur 0 -- -- 97
2021-01-10 05:00:00 -7.3 0 Calma 6 Sur 0 -- -- 97
2021-01-10 04:00:00 -6.1 2 Sur 4 Sur 0 -- -- 97
2021-01-10 03:00:00 -6.8 0 Calma 3 Sudoeste 0 -- -- 98
2021-01-10 02:00:00 -5.5 0 Calma 8 Sudoeste 0 -- -- 97
2021-01-10 01:00:00 -5 0 Calma 4 Noroeste 0 -- -- 97
2021-01-10 00:00:00 -4.2 0 Calma 6 Sudeste 0 -- -- 95
2021-01-09 23:00:00 -1.3 0 Calma 6 Este 0 -- -- 96
2021-01-09 22:00:00 -1.3 0 Calma 14 Sur 0.4 -- -- 93
2021-01-09 21:00:00 0.9 6 Sur 17 Sur 0.6 -- -- 90
2021-01-09 20:00:00 1.1 5 Sur 17 Sudoeste 0.8 -- -- 90
2021-01-09 19:00:00 1 7 Sur 18 Sur 0.8 -- -- 93
2021-01-09 18:00:00 1.5 9 Sur 19 Sur 1.4 -- -- 90
2021-01-09 17:00:00 2.1 0 Calma 7 Sur 3.2 -- -- 88
2021-01-09 16:00:00 5.3 0 Calma 6 Norte 3.2 -- -- 78
2021-01-09 15:00:00 2 2 Noroeste 9 Sur 2.6 -- -- 91
2021-01-09 14:00:00 0.6 3 Oeste 8 Sudoeste 2.4 -- -- 98
2021-01-09 13:00:00 0.8 4 Sudoeste 8 Sudoeste 1.6 -- -- 98
2021-01-09 12:00:00 1.1 2 Sudoeste 8 Sudoeste 1 -- -- 99
2021-01-09 11:00:00 -0.1 3 Sur 7 Sur 0.6 -- -- 99
2021-01-09 10:00:00 -0.8 0 Calma 13 Sudoeste 0.4 -- -- 100
2021-01-09 09:00:00 -0.4 8 Sudoeste 14 Sudoeste 0.8 -- -- 100
2021-01-09 08:00:00 0.4 3 Sur 19 Sudeste 1 -- -- 100
2021-01-09 07:00:00 0.7 5 Sudeste 18 Sudeste 0.6 -- -- 100
2021-01-09 06:00:00 0.6 5 Este 18 Sudeste 0 -- -- 100
2021-01-09 05:00:00 0.4 0 Calma -- -- 0 -- -- 100
2021-01-09 04:00:00 0.1 0 Calma -- -- 0 -- -- 100
2021-01-09 03:00:00 -0.1 0 Calma -- -- 0 -- -- 100
2021-01-09 02:00:00 0 0 Calma -- -- 0 -- -- 100
2021-01-09 01:00:00 0 0 Calma -- -- 0 -- -- 100
2021-01-09 00:00:00 0 0 Calma -- -- 0 -- -- 100
2021-01-08 23:00:00 0 0 Calma -- -- 0.4 -- -- 100
2021-01-08 22:00:00 -0.1 0 Calma -- -- 0 -- -- 100
2021-01-08 21:00:00 0 0 Calma -- -- 0.4 -- -- 100
2021-01-08 20:00:00 0.1 0 Calma -- -- 0.4 -- -- 100
2021-01-08 19:00:00 0.1 0 Calma -- -- 0 -- -- 100
2021-01-08 18:00:00 0 0 Calma -- -- 0.4 -- -- 100
2021-01-08 17:00:00 0.1 0 Calma 18 Nordeste 0.8 -- -- 100
2021-01-08 16:00:00 0.3 6 Nordeste 13 Nordeste 0.4 -- -- 100
2021-01-08 15:00:00 0.3 8 Nordeste 12 Norte 1.2 -- -- 99
2021-01-08 14:00:00 0.6 5 Nordeste 12 Nordeste 1.4 -- -- 98
2021-01-08 13:00:00 0.9 6 Norte 12 Nordeste 0 -- -- 99
2021-01-08 12:00:00 0.6 0 Calma -- -- 0 -- -- 99
2021-01-08 11:00:00 0.7 0 Calma -- -- 0 -- -- 99
2021-01-08 10:00:00 -0.5 0 Calma -- -- 0 -- -- 100
2021-01-08 09:00:00 -1.3 0 Calma -- -- 0 -- -- 100
2021-01-08 08:00:00 -1.9 0 Calma -- -- 0 -- -- 100
2021-01-08 07:00:00 -1.9 0 Calma -- -- 0 -- -- 100
2021-01-08 06:00:00 -2 0 Calma -- -- 0 -- -- 100
2021-01-08 05:00:00 -2 0 Calma -- -- 0 -- -- 100
2021-01-08 04:00:00 -1.8 0 Calma -- -- 0 -- -- 100
2021-01-08 03:00:00 -1.5 0 Calma -- -- 0 -- -- 100
2021-01-08 02:00:00 -1.3 0 Calma -- -- 0 -- -- 100
2021-01-08 01:00:00 -1.1 0 Calma -- -- 0 -- -- 100
2021-01-08 00:00:00 -1.3 0 Calma -- -- 0 -- -- 100
2021-01-07 23:00:00 -1.5 0 Calma -- -- 0 -- -- 100
2021-01-07 22:00:00 -0.8 0 Calma -- -- 0.2 -- -- 100
2021-01-07 21:00:00 -0.4 0 Calma -- -- 0 -- -- 100
2021-01-07 20:00:00 -0.4 0 Calma -- -- 0 -- -- 100
2021-01-07 19:00:00 -0.3 0 Calma -- -- 0.2 -- -- 100
2021-01-07 18:00:00 -0.2 0 Calma -- -- 0.6 -- -- 100
2021-01-07 17:00:00 0.1 0 Calma -- -- 1 -- -- 99
2021-01-07 16:00:00 0.1 0 Calma -- -- 1 -- -- 99
2021-01-07 15:00:00 0.5 0 Calma -- -- 0.6 -- -- 99
2021-01-07 14:00:00 0.3 0 Calma -- -- 0.2 -- -- 99
2021-01-07 13:00:00 0.4 0 Calma -- -- 0 -- -- 99
2021-01-07 12:00:00 0.3 0 Calma -- -- 0.2 -- -- 99
2021-01-07 11:00:00 0.2 0 Calma -- -- 0.2 -- -- 99
2021-01-07 10:00:00 0.1 0 Calma -- -- 0 -- -- 99
2021-01-07 09:00:00 0 0 Calma -- -- 0 -- -- 98
2021-01-07 08:00:00 -0.1 0 Calma 8 Nordeste 0 -- -- 98
2021-01-07 07:00:00 0 4 Nordeste 18 Nordeste 0 -- -- 97
2021-01-07 06:00:00 0.5 8 Nordeste 29 Este 0.2 -- -- 95
2021-01-07 05:00:00 0.6 11 Este 32 Sudeste 0.2 -- -- 94
2021-01-07 04:00:00 0.5 14 Este 32 Este 0 -- -- 95
2021-01-07 03:00:00 0.6 13 Este 28 Este 0 -- -- 93
2021-01-07 02:00:00 1.3 14 Este 37 Este 0 -- -- 87
2021-01-07 01:00:00 1.9 10 Este 27 Este 0 -- -- 65
2021-01-07 00:00:00 1.8 7 Nordeste 15 Nordeste 0 -- -- 60
2021-01-06 23:00:00 2.1 7 Nordeste 15 Este 0 -- -- 57
2021-01-06 22:00:00 2.4 10 Nordeste 22 Nordeste 0 -- -- 56
2021-01-06 21:00:00 1.3 3 Nordeste 15 Este 0 -- -- 66
2021-01-06 20:00:00 1.5 2 Nordeste 11 Este 0 -- -- 71
2021-01-06 19:00:00 3 5 Este 9 Este 0 -- -- 59
2021-01-06 18:00:00 3.1 3 Este 9 Nordeste 0 -- -- 63
2021-01-06 17:00:00 4.1 4 Este 15 Este 0 -- -- 60
2021-01-06 16:00:00 4.3 9 Nordeste 18 Nordeste 0 -- -- 55
2021-01-06 15:00:00 5.2 9 Nordeste 16 Nordeste 0 -- -- 54
2021-01-06 14:00:00 4.1 8 Nordeste 13 Norte 0 -- -- 62
2021-01-06 13:00:00 3.4 6 Nordeste 12 Norte 0 -- -- 67
2021-01-06 12:00:00 2.2 3 Norte 8 Norte 0 -- -- 72
2021-01-06 11:00:00 6.1 0 Calma 0 Calma 0 -- -- 57
2021-01-06 10:00:00 -4.5 0 Calma 4 Sur 0 -- -- 92
2021-01-06 09:00:00 -6.3 2 Sur 5 Sudeste 0 -- -- 90
2021-01-06 08:00:00 -6.1 2 Sudeste 4 Sur 0 -- -- 90
2021-01-06 07:00:00 -6.3 3 Sur 4 Sur 0 -- -- 89
2021-01-06 06:00:00 -5.5 0 Calma 2 Sur 0 -- -- 93
2021-01-06 05:00:00 -5.7 0 Calma 2 Sudeste 0 -- -- 92
2021-01-06 04:00:00 -5.1 2 Sur 3 Sur 0 -- -- 93
2021-01-06 03:00:00 -4.9 0 Calma 3 Sur 0 -- -- 94
2021-01-06 02:00:00 -4.8 0 Calma 4 Sur 0 -- -- 91
2021-01-06 01:00:00 -3.1 0 Calma 5 Sudeste 0 -- -- 91
2021-01-06 00:00:00 -3.2 0 Calma 8 Sur 0 -- -- 90
2021-01-05 23:00:00 -2.1 4 Sur 8 Sur 0 -- -- 89
2021-01-05 22:00:00 -2.2 0 Calma 4 Sur 0 -- -- 90
2021-01-05 21:00:00 -1.6 2 Sur 4 Sur 0 -- -- 86
2021-01-05 20:00:00 -0.2 2 Sur 7 Este 0 -- -- 80
2021-01-05 19:00:00 1.6 3 Este 10 Este 0 -- -- 69
2021-01-05 18:00:00 3.2 6 Este 14 Este 0 -- -- 65
2021-01-05 17:00:00 6.8 2 Nordeste 8 Norte 0 -- -- 47
2021-01-05 16:00:00 6.5 4 Nordeste 11 Norte 0 -- -- 50
2021-01-05 15:00:00 6 4 Noroeste 12 Nordeste 0 -- -- 51
2021-01-05 14:00:00 5.2 7 Norte 13 Noroeste 0 -- -- 52
2021-01-05 13:00:00 5.9 3 Nordeste 9 Noroeste 0 -- -- 52
2021-01-05 12:00:00 4.9 4 Sudoeste 8 Oeste 0 -- -- 59
2021-01-05 11:00:00 2.7 4 Sur 8 Sur 0 -- -- 73
2021-01-05 10:00:00 -2.3 3 Sur 8 Sur 0 -- -- 89
2021-01-05 09:00:00 -4.1 2 Sudeste 8 Sur 0 -- -- 92
2021-01-05 08:00:00 -4.3 5 Sur 8 Sur 0 -- -- 91
2021-01-05 07:00:00 -3.7 4 Sur 7 Sur 0 -- -- 93
2021-01-05 06:00:00 -4.6 0 Calma 5 Sur 0 -- -- 94
2021-01-05 05:00:00 -3.9 0 Calma 5 Sur 0 -- -- 95
2021-01-05 04:00:00 -3.7 5 Sur 9 Sudeste 0 -- -- 95
2021-01-05 03:00:00 -2.6 3 Sur 7 Sur 0 -- -- 94
2021-01-05 02:00:00 -2 4 Sur 8 Sur 0 -- -- 94
2021-01-05 01:00:00 -1.2 3 Sudoeste 6 Sudoeste 0 -- -- 92
2021-01-05 00:00:00 -0.2 3 Sur 15 Norte 0 -- -- 91
2021-01-04 23:00:00 0.2 10 Norte 21 Noroeste 0 -- -- 93
2021-01-04 22:00:00 0.3 0 Calma 6 Sudeste 0 -- -- 84
2021-01-04 21:00:00 0.2 2 Sur 6 Sudoeste 0 -- -- 83
2021-01-04 20:00:00 0.6 4 Sudoeste 8 Sudoeste 0 -- -- 81
2021-01-04 19:00:00 1.6 3 Sudoeste 7 Oeste 0 -- -- 76
2021-01-04 18:00:00 2.8 5 Oeste 18 Oeste 0 -- -- 72
2021-01-04 17:00:00 4.2 12 Oeste 27 Oeste 0 -- -- 64
2021-01-04 16:00:00 5.2 14 Oeste 30 Oeste 0 -- -- 65
2021-01-04 15:00:00 5.6 13 Oeste 21 Oeste 0 -- -- 64
2021-01-04 14:00:00 4.7 13 Oeste 24 Oeste 0 -- -- 66
2021-01-04 13:00:00 4.3 8 Oeste 19 Oeste 0 -- -- 75
2021-01-04 12:00:00 3.5 14 Oeste 25 Oeste 0 -- -- 77
2021-01-04 11:00:00 3.2 12 Oeste 23 Oeste 0 -- -- 79
2021-01-04 10:00:00 2.3 7 Sudoeste 14 Sudoeste 0 -- -- 83
2021-01-04 09:00:00 0 5 Oeste 10 Oeste 0 -- -- 84
2021-01-04 08:00:00 0.1 5 Sudeste 8 Sur 0 -- -- 81
2021-01-04 07:00:00 0.5 0 Calma 9 Oeste 0 -- -- 81
2021-01-04 06:00:00 1 4 Sudoeste 13 Oeste 0 -- -- 79
2021-01-04 05:00:00 0.5 4 Oeste 10 Oeste 0 -- -- 80
2021-01-04 04:00:00 0.6 4 Sudoeste 15 Oeste 0 -- -- 79
2021-01-04 03:00:00 1.4 8 Oeste 17 Oeste 0 -- -- 77
2021-01-04 02:00:00 0.6 5 Sudoeste 13 Sudoeste 0 -- -- 80
2021-01-04 01:00:00 0.6 3 Sudoeste 11 Sudoeste 0 -- -- 79
2021-01-04 00:00:00 1.1 5 Sudoeste 13 Sudoeste 0 -- -- 78
2021-01-03 23:00:00 1 5 Oeste 17 Sudoeste 0 -- -- 78
2021-01-03 22:00:00 1.4 6 Sudoeste 13 Oeste 0 -- -- 78
2021-01-03 21:00:00 1.7 6 Sudoeste 10 Sudoeste 0 -- -- 75
2021-01-03 20:00:00 1 2 Oeste 4 Oeste 0 -- -- 75
2021-01-03 19:00:00 2.6 3 Sudoeste 8 Sudoeste 0 -- -- 67
2021-01-03 18:00:00 4.2 5 Oeste 21 Oeste 0 -- -- 58
2021-01-03 17:00:00 6.8 12 Oeste 27 Oeste 0 -- -- 47
2021-01-03 16:00:00 7 16 Oeste 27 Sudoeste 0 -- -- 47
2021-01-03 15:00:00 7.1 12 Oeste 28 Oeste 0 -- -- 43
2021-01-03 14:00:00 6.4 14 Oeste 23 Oeste 0 -- -- 44
2021-01-03 13:00:00 5.7 13 Oeste 22 Oeste 0 -- -- 47
2021-01-03 12:00:00 5 9 Oeste 15 Oeste 0 -- -- 54
2021-01-03 11:00:00 3.1 10 Oeste 21 Oeste 0 -- -- 61
2021-01-03 10:00:00 0.6 9 Oeste 17 Oeste 0 -- -- 71
2021-01-03 09:00:00 -1.6 3 Sudoeste 11 Oeste 0 -- -- 74
2021-01-03 08:00:00 -2.3 7 Oeste 11 Oeste 0 -- -- 74
2021-01-03 07:00:00 -2.5 2 Oeste 9 Oeste 0 -- -- 75
2021-01-03 06:00:00 -2.6 2 Sudoeste 5 Sur 0 -- -- 77
2021-01-03 05:00:00 -2.6 5 Sur 9 Sudeste 0 -- -- 75
2021-01-03 04:00:00 -2.9 4 Sur 6 Sur 0 -- -- 78
2021-01-03 03:00:00 -2 2 Oeste 5 Noroeste 0 -- -- 75
2021-01-03 02:00:00 -1.8 0 Calma 8 Oeste 0 -- -- 75
2021-01-03 01:00:00 -1.2 4 Oeste 13 Oeste 0 -- -- 70
2021-01-03 00:00:00 -0.5 7 Oeste 14 Noroeste 0 -- -- 67
2021-01-02 23:00:00 0 5 Noroeste 13 Oeste 0 -- -- 66
2021-01-02 22:00:00 0.1 6 Noroeste 14 Noroeste 0 -- -- 66
2021-01-02 21:00:00 0.4 6 Noroeste 17 Noroeste 0 -- -- 63
2021-01-02 20:00:00 0.9 10 Noroeste 19 Noroeste 0 -- -- 61
2021-01-02 19:00:00 1.4 12 Noroeste 25 Noroeste 0 -- -- 60
2021-01-02 18:00:00 2.6 18 Noroeste 39 Noroeste 0 -- -- 57
2021-01-02 17:00:00 3.6 24 Noroeste 39 Noroeste 0 -- -- 53
2021-01-02 16:00:00 4.8 23 Noroeste 39 Noroeste 0 -- -- 50
2021-01-02 15:00:00 4.5 23 Noroeste 41 Noroeste 0 -- -- 53
2021-01-02 14:00:00 3.9 20 Noroeste 41 Noroeste 0 -- -- 57